Terminal Aerodrome Forecast
Issued by NWS Sioux Falls, SD

Home | Current Version | Previous Version | Text Only | Print | Product List | Glossary Off
Versions: 1 2 3 4 5 6 7 8 9 10 11 12 13 14 15 16 17 18 19 20 21 22 23 24

000
FTUS43 KFSD 152320
TAFHON
TAF
KHON 152320Z 1600/1624 35025G34KT 3SM -SN OVC010
      TEMPO 1600/1601 1/2SM SN VV008
     FM160100 34025G34KT P6SM OVC012
     FM160600 34015G25KT P6SM OVC015
     FM161400 34010KT P6SM BKN015=

USA.gov is the U.S. government's official web portal to all federal, state and local government web resources and services.